Time,TemperatureF,DewpointF,PressureIn,WindDirection,WindDirectionDegrees,WindSpeedMPH,WindSpeedGustMPH,Humidity,HourlyPrecipIn,Conditions,Clouds,dailyrainin,SoftwareType,DateUTC
2013-02-10 00:00:00,59.5,58.7,29.72,SSE,162,3.6,10.5,97,0.00,,---,0.00,VWS V14.00,2013-02-10 06:00:00,
2013-02-10 00:10:00,59.9,59.0,29.72,SSE,157,5.8,10.5,97,0.00,,---,0.00,VWS V14.00,2013-02-10 06:10:00,
2013-02-10 00:20:00,60.3,59.4,29.72,SSE,168,7.4,8.7,97,0.00,,---,0.00,VWS V14.00,2013-02-10 06:20:00,
2013-02-10 00:30:00,60.6,59.8,29.72,SSW,212,6.9,11.2,97,0.00,,---,0.00,VWS V14.00,2013-02-10 06:30:00,
2013-02-10 00:40:00,61.2,60.3,29.69,SSW,194,9.6,13.0,97,0.00,,---,0.00,VWS V14.00,2013-02-10 06:40:00,
2013-02-10 00:50:00,61.7,60.8,29.66,South,185,9.6,12.1,97,0.00,,---,0.00,VWS V14.00,2013-02-10 06:50:00,
2013-02-10 01:00:00,62.1,61.2,29.66,SSE,148,9.6,13.0,97,0.00,,---,0.00,VWS V14.00,2013-02-10 07:00:00,
2013-02-10 01:10:00,62.6,61.7,29.66,SSW,209,5.8,16.8,97,0.00,,---,0.00,VWS V14.00,2013-02-10 07:10:00,
2013-02-10 01:20:00,63.0,62.1,29.66,SW,219,6.3,18.6,97,0.00,,---,0.00,VWS V14.00,2013-02-10 07:20:00,
2013-02-10 01:30:00,63.5,62.6,29.66,SSW,200,10.5,15.9,97,0.00,,---,0.00,VWS V14.00,2013-02-10 07:30:00,
2013-02-10 01:40:00,63.9,63.0,29.66,South,180,8.7,17.2,97,0.00,,---,0.00,VWS V14.00,2013-02-10 07:40:00,
2013-02-10 01:50:00,64.4,63.5,29.63,South,177,6.9,19.5,97,0.00,,---,0.00,VWS V14.00,2013-02-10 07:50:00,
2013-02-10 02:00:00,64.9,64.1,29.63,SSW,209,6.7,17.7,97,0.00,,---,0.00,VWS V14.00,2013-02-10 08:00:00,
2013-02-10 02:10:00,65.5,64.6,29.66,ESE,109,7.4,14.8,97,0.00,,---,0.00,VWS V14.00,2013-02-10 08:10:00,
2013-02-10 02:20:00,65.7,64.8,29.63,SSW,198,9.2,19.5,97,0.00,,---,0.00,VWS V14.00,2013-02-10 08:20:00,
2013-02-10 02:30:00,66.2,65.3,29.63,South,179,7.4,16.8,97,0.00,,---,0.00,VWS V14.00,2013-02-10 08:30:00,
2013-02-10 02:40:00,66.6,65.7,29.66,WSW,247,7.8,16.8,97,0.00,,---,0.00,VWS V14.00,2013-02-10 08:40:00,
2013-02-10 02:50:00,66.7,65.9,29.69,WSW,252,4.5,13.9,97,0.00,,---,0.00,VWS V14.00,2013-02-10 08:50:00,
2013-02-10 03:00:00,61.9,59.5,29.69,WNW,296,6.7,13.9,92,0.20,,---,0.20,VWS V14.00,2013-02-10 09:00:00,
2013-02-10 03:10:00,59.0,57.3,29.72,WSW,238,4.9,9.6,94,0.39,,---,0.39,VWS V14.00,2013-02-10 09:10:00,
2013-02-10 03:20:00,58.1,57.0,29.75,SW,226,0.0,6.9,96,0.43,,---,0.43,VWS V14.00,2013-02-10 09:20:00,
2013-02-10 03:30:00,57.9,57.1,29.75,WNW,295,0.0,7.4,97,0.43,,---,0.43,VWS V14.00,2013-02-10 09:30:00,
2013-02-10 03:40:00,57.9,57.1,29.72,WSW,253,3.1,6.9,97,0.43,,---,0.43,VWS V14.00,2013-02-10 09:40:00,
2013-02-10 03:50:00,57.9,57.1,29.75,NNW,335,3.6,6.3,97,0.47,,---,0.47,VWS V14.00,2013-02-10 09:50:00,
2013-02-10 04:00:00,57.9,57.1,29.75,West,275,3.6,6.3,97,0.51,,---,0.51,VWS V14.00,2013-02-10 10:00:00,
2013-02-10 04:10:00,57.7,56.9,29.75,WNW,288,0.0,6.3,97,0.31,,---,0.51,VWS V14.00,2013-02-10 10:10:00,
2013-02-10 04:20:00,57.2,56.4,29.72,NNW,330,0.0,5.4,97,0.12,,---,0.51,VWS V14.00,2013-02-10 10:20:00,
2013-02-10 04:30:00,57.0,56.2,29.72,NNW,332,0.0,2.7,97,0.08,,---,0.51,VWS V14.00,2013-02-10 10:30:00,
2013-02-10 04:40:00,56.7,55.8,29.78,NNW,330,0.0,0.0,97,0.08,,---,0.51,VWS V14.00,2013-02-10 10:40:00,
2013-02-10 04:50:00,55.9,55.1,29.78,NNW,329,0.0,3.1,97,0.08,,---,0.51,VWS V14.00,2013-02-10 10:50:00,
2013-02-10 05:00:00,55.0,54.2,29.78,NNW,336,3.1,3.1,97,0.04,,---,0.51,VWS V14.00,2013-02-10 11:00:00,
2013-02-10 05:10:00,54.1,53.3,29.75,NNW,338,0.0,3.1,97,0.00,,---,0.51,VWS V14.00,2013-02-10 11:10:00,
2013-02-10 05:20:00,53.2,52.4,29.78,NNW,337,0.0,0.0,97,0.00,,---,0.51,VWS V14.00,2013-02-10 11:20:00,
2013-02-10 05:30:00,52.5,51.7,29.78,NNW,337,0.0,3.1,97,0.00,,---,0.51,VWS V14.00,2013-02-10 11:30:00,
2013-02-10 05:40:00,51.6,50.5,29.78,NNW,337,0.0,0.0,96,0.00,,---,0.51,VWS V14.00,2013-02-10 11:40:00,
2013-02-10 05:50:00,50.7,49.9,29.78,NNW,335,0.0,0.0,97,0.00,,---,0.51,VWS V14.00,2013-02-10 11:50:00,
2013-02-10 06:00:00,50.4,49.5,29.78,NNW,336,0.0,0.0,97,0.00,,---,0.51,VWS V14.00,2013-02-10 12:00:00,
2013-02-10 06:10:00,49.8,49.0,29.80,NNW,338,0.0,0.0,97,0.00,,---,0.51,VWS V14.00,2013-02-10 12:10:00,
2013-02-10 06:20:00,49.6,48.8,29.78,NNW,337,0.0,0.0,97,0.00,,---,0.51,VWS V14.00,2013-02-10 12:20:00,
2013-02-10 06:30:00,49.1,48.3,29.78,NNW,337,0.0,0.0,97,0.00,,---,0.51,VWS V14.00,2013-02-10 12:30:00,
2013-02-10 06:40:00,49.1,48.3,29.80,NNW,338,0.0,0.0,97,0.00,,---,0.51,VWS V14.00,2013-02-10 12:40:00,
2013-02-10 06:50:00,48.7,47.9,29.80,NNW,337,0.0,4.9,97,0.00,,---,0.51,VWS V14.00,2013-02-10 12:50:00,
2013-02-10 07:00:00,48.7,47.9,29.80,NNW,335,0.0,4.9,97,0.00,,---,0.51,VWS V14.00,2013-02-10 13:00:00,
2013-02-10 07:10:00,48.2,47.4,29.80,NNW,334,0.0,0.0,97,0.00,,---,0.51,VWS V14.00,2013-02-10 13:10:00,
2013-02-10 07:20:00,47.8,47.0,29.80,NNW,335,0.0,0.0,97,0.00,,---,0.51,VWS V14.00,2013-02-10 13:20:00,
2013-02-10 07:30:00,47.5,46.4,29.80,NNW,331,0.0,2.7,96,0.00,,---,0.51,VWS V14.00,2013-02-10 13:30:00,
2013-02-10 07:40:00,47.1,46.3,29.83,NNW,335,0.0,0.0,97,0.00,,---,0.51,VWS V14.00,2013-02-10 13:40:00,
2013-02-10 07:50:00,47.3,46.5,29.83,NNW,333,0.0,0.0,97,0.00,,---,0.51,VWS V14.00,2013-02-10 13:50:00,
2013-02-10 08:00:00,47.5,46.7,29.83,NNW,337,0.0,0.0,97,0.00,,---,0.51,VWS V14.00,2013-02-10 14:00:00,
2013-02-10 08:10:00,47.5,46.4,29.83,NNW,337,0.0,0.0,96,0.00,,---,0.51,VWS V14.00,2013-02-10 14:10:00,
2013-02-10 08:20:00,48.2,47.4,29.83,NNW,332,0.0,0.0,97,0.00,,---,0.51,VWS V14.00,2013-02-10 14:20:00,
2013-02-10 08:30:00,48.9,48.1,29.83,NNW,337,0.0,0.0,97,0.00,,---,0.51,VWS V14.00,2013-02-10 14:30:00,
2013-02-10 08:40:00,50.2,49.1,29.83,NW,310,2.7,4.5,96,0.00,,---,0.51,VWS V14.00,2013-02-10 14:40:00,
2013-02-10 08:50:00,51.3,49.9,29.86,NW,305,0.0,4.0,95,0.00,,---,0.51,VWS V14.00,2013-02-10 14:50:00,
2013-02-10 09:00:00,52.5,50.6,29.86,NW,305,0.0,3.1,93,0.00,,---,0.51,VWS V14.00,2013-02-10 15:00:00,
2013-02-10 09:10:00,53.4,50.3,29.83,NNW,341,2.7,5.4,89,0.00,,---,0.51,VWS V14.00,2013-02-10 15:10:00,
2013-02-10 09:20:00,54.3,49.6,29.83,NW,312,4.0,6.3,84,0.00,,---,0.51,VWS V14.00,2013-02-10 15:20:00,
2013-02-10 09:30:00,55.2,49.5,29.83,WNW,289,3.6,6.7,81,0.00,,---,0.51,VWS V14.00,2013-02-10 15:30:00,
2013-02-10 09:40:00,55.9,49.2,29.86,WNW,302,4.0,5.4,78,0.04,,---,0.55,VWS V14.00,2013-02-10 15:40:00,
2013-02-10 09:50:00,56.5,48.3,29.86,West,278,4.9,7.4,74,0.04,,---,0.55,VWS V14.00,2013-02-10 15:50:00,
2013-02-10 10:00:00,57.0,48.1,29.86,NW,323,0.0,6.9,72,0.04,,---,0.55,VWS V14.00,2013-02-10 16:00:00,
2013-02-10 10:10:00,57.6,47.9,29.86,WNW,283,4.0,6.3,70,0.04,,---,0.55,VWS V14.00,2013-02-10 16:10:00,
2013-02-10 10:20:00,58.1,47.6,29.86,North,356,4.0,4.9,68,0.04,,---,0.55,VWS V14.00,2013-02-10 16:20:00,
2013-02-10 10:30:00,59.0,46.8,29.86,NW,310,0.0,5.4,64,0.04,,---,0.55,VWS V14.00,2013-02-10 16:30:00,
2013-02-10 10:40:00,59.2,45.8,29.86,WNW,283,5.8,7.4,61,0.04,,---,0.55,VWS V14.00,2013-02-10 16:40:00,
2013-02-10 10:50:00,59.2,44.9,29.86,WNW,302,3.1,5.8,59,0.00,,---,0.55,VWS V14.00,2013-02-10 16:50:00,
2013-02-10 11:00:00,59.4,43.2,29.86,NNW,327,2.7,6.3,55,0.00,,---,0.55,VWS V14.00,2013-02-10 17:00:00,
2013-02-10 11:10:00,59.9,42.7,29.86,SSW,213,4.5,6.3,53,0.00,,---,0.55,VWS V14.00,2013-02-10 17:10:00,
2013-02-10 11:20:00,60.6,42.4,29.86,WSW,252,3.6,6.9,51,0.00,,---,0.55,VWS V14.00,2013-02-10 17:20:00,
2013-02-10 11:30:00,60.6,41.4,29.86,West,260,5.4,8.3,49,0.00,,---,0.55,VWS V14.00,2013-02-10 17:30:00,
2013-02-10 11:40:00,60.6,40.3,29.86,West,266,4.9,9.2,47,0.00,,---,0.55,VWS V14.00,2013-02-10 17:40:00,
2013-02-10 11:50:00,61.5,40.6,29.86,NNW,337,0.0,6.9,46,0.00,,---,0.55,VWS V14.00,2013-02-10 17:50:00,
2013-02-10 12:00:00,62.8,41.2,29.86,WNW,282,4.0,6.3,45,0.00,,---,0.55,VWS V14.00,2013-02-10 18:00:00,
2013-02-10 12:10:00,63.5,40.6,29.86,West,264,4.0,6.3,43,0.00,,---,0.55,VWS V14.00,2013-02-10 18:10:00,
2013-02-10 12:20:00,64.0,39.9,29.86,WNW,288,3.1,5.8,41,0.00,,---,0.55,VWS V14.00,2013-02-10 18:20:00,
2013-02-10 12:30:00,64.8,39.9,29.86,West,274,0.0,6.7,40,0.00,,---,0.55,VWS V14.00,2013-02-10 18:30:00,
2013-02-10 12:40:00,65.3,39.7,29.86,West,275,4.9,8.7,39,0.00,,---,0.55,VWS V14.00,2013-02-10 18:40:00,
2013-02-10 12:50:00,65.1,38.2,29.83,WNW,286,5.8,8.3,37,0.00,,---,0.55,VWS V14.00,2013-02-10 18:50:00,
2013-02-10 13:00:00,65.8,38.2,29.83,WNW,293,3.6,6.9,36,0.00,,---,0.55,VWS V14.00,2013-02-10 19:00:00,
2013-02-10 13:10:00,66.0,37.6,29.83,WNW,287,4.9,10.5,35,0.00,,---,0.55,VWS V14.00,2013-02-10 19:10:00,
2013-02-10 13:20:00,66.2,37.0,29.83,WNW,290,4.0,10.1,34,0.00,,---,0.55,VWS V14.00,2013-02-10 19:20:00,
2013-02-10 13:30:00,66.9,37.7,29.83,West,278,3.6,6.9,34,0.00,,---,0.55,VWS V14.00,2013-02-10 19:30:00,
2013-02-10 13:40:00,66.9,36.9,29.83,WNW,283,4.9,7.4,33,0.00,,---,0.55,VWS V14.00,2013-02-10 19:40:00,
2013-02-10 13:50:00,66.2,36.3,29.83,WNW,292,0.0,6.7,33,0.00,,---,0.55,VWS V14.00,2013-02-10 19:50:00,
2013-02-10 14:00:00,66.9,36.9,29.83,NNW,337,2.7,5.8,33,0.00,,---,0.55,VWS V14.00,2013-02-10 20:00:00,
2013-02-10 14:10:00,67.1,36.3,29.83,WNW,298,4.0,8.7,32,0.00,,---,0.55,VWS V14.00,2013-02-10 20:10:00,
2013-02-10 14:20:00,67.5,35.0,29.83,WNW,299,4.9,9.6,30,0.00,,---,0.55,VWS V14.00,2013-02-10 20:20:00,
2013-02-10 14:30:00,67.3,34.0,29.83,WNW,291,4.5,8.7,29,0.00,,---,0.55,VWS V14.00,2013-02-10 20:30:00,
2013-02-10 14:40:00,67.8,34.4,29.83,NNW,337,4.0,7.4,29,0.00,,---,0.55,VWS V14.00,2013-02-10 20:40:00,
2013-02-10 14:50:00,68.0,33.7,29.83,WNW,302,4.0,7.8,28,0.00,,---,0.55,VWS V14.00,2013-02-10 20:50:00,
2013-02-10 15:00:00,68.2,33.9,29.83,WNW,298,0.0,6.3,28,0.00,,---,0.55,VWS V14.00,2013-02-10 21:00:00,
2013-02-10 15:10:00,68.7,34.3,29.83,WSW,245,5.4,8.7,28,0.00,,---,0.55,VWS V14.00,2013-02-10 21:10:00,
2013-02-10 15:20:00,68.5,33.3,29.83,NW,318,4.5,7.4,27,0.00,,---,0.55,VWS V14.00,2013-02-10 21:20:00,
2013-02-10 15:30:00,67.8,32.7,29.83,WSW,242,4.0,5.4,27,0.00,,---,0.55,VWS V14.00,2013-02-10 21:30:00,
2013-02-10 15:40:00,68.2,33.0,29.83,WNW,293,0.0,5.4,27,0.00,,---,0.55,VWS V14.00,2013-02-10 21:40:00,
2013-02-10 15:50:00,68.9,32.6,29.83,WNW,301,0.0,6.3,26,0.00,,---,0.55,VWS V14.00,2013-02-10 21:50:00,
2013-02-10 16:00:00,69.4,33.1,29.83,WNW,303,3.1,5.4,26,0.00,,---,0.55,VWS V14.00,2013-02-10 22:00:00,
2013-02-10 16:10:00,69.8,32.4,29.83,WSW,254,3.1,7.8,25,0.00,,---,0.55,VWS V14.00,2013-02-10 22:10:00,
2013-02-10 16:20:00,68.5,31.4,29.83,NNW,340,0.0,6.3,25,0.00,,---,0.55,VWS V14.00,2013-02-10 22:20:00,
2013-02-10 16:30:00,68.5,31.4,29.83,West,270,3.1,5.4,25,0.00,,---,0.55,VWS V14.00,2013-02-10 22:30:00,
2013-02-10 16:40:00,68.0,30.9,29.83,West,274,0.0,6.3,25,0.00,,---,0.55,VWS V14.00,2013-02-10 22:40:00,
2013-02-10 16:50:00,68.7,31.5,29.83,West,267,0.0,4.9,25,0.00,,---,0.55,VWS V14.00,2013-02-10 22:50:00,
2013-02-10 17:00:00,67.6,30.6,29.83,SW,226,0.0,5.8,25,0.00,,---,0.55,VWS V14.00,2013-02-10 23:00:00,
2013-02-10 17:10:00,67.1,30.1,29.83,WSW,237,0.0,4.0,25,0.00,,---,0.55,VWS V14.00,2013-02-10 23:10:00,
2013-02-10 17:20:00,66.6,29.7,29.86,SW,234,0.0,0.0,25,0.00,,---,0.55,VWS V14.00,2013-02-10 23:20:00,
2013-02-10 17:30:00,66.0,29.2,29.86,SW,235,0.0,0.0,25,0.00,,---,0.55,VWS V14.00,2013-02-10 23:30:00,
2013-02-10 17:40:00,65.1,28.5,29.86,WSW,238,0.0,3.1,25,0.00,,---,0.55,VWS V14.00,2013-02-10 23:40:00,
2013-02-10 17:50:00,63.9,27.4,29.86,WSW,238,0.0,0.0,25,0.00,,---,0.55,VWS V14.00,2013-02-10 23:50:00,
2013-02-10 18:00:00,62.6,27.3,29.86,WSW,240,0.0,0.0,26,0.00,,---,0.55,VWS V14.00,2013-02-11 00:00:00,
2013-02-10 18:10:00,61.2,26.9,29.86,WSW,244,0.0,0.0,27,0.00,,---,0.55,VWS V14.00,2013-02-11 00:10:00,
2013-02-10 18:20:00,59.9,25.9,29.86,WSW,239,0.0,0.0,27,0.00,,---,0.55,VWS V14.00,2013-02-11 00:20:00,
2013-02-10 18:30:00,58.5,25.5,29.86,WSW,240,0.0,0.0,28,0.00,,---,0.55,VWS V14.00,2013-02-11 00:30:00,
2013-02-10 18:40:00,57.4,25.4,29.89,WSW,240,0.0,0.0,29,0.00,,---,0.55,VWS V14.00,2013-02-11 00:40:00,
2013-02-10 18:50:00,56.3,25.3,29.89,WSW,240,0.0,0.0,30,0.00,,---,0.55,VWS V14.00,2013-02-11 00:50:00,
2013-02-10 19:00:00,55.2,25.1,29.89,WSW,242,0.0,0.0,31,0.00,,---,0.55,VWS V14.00,2013-02-11 01:00:00,
2013-02-10 19:10:00,54.3,25.9,29.89,WSW,242,0.0,0.0,33,0.00,,---,0.55,VWS V14.00,2013-02-11 01:10:00,
2013-02-10 19:20:00,53.6,25.9,29.92,WSW,242,0.0,0.0,34,0.00,,---,0.55,VWS V14.00,2013-02-11 01:20:00,
2013-02-10 19:30:00,52.9,26.0,29.92,WSW,240,0.0,0.0,35,0.00,,---,0.55,VWS V14.00,2013-02-11 01:30:00,
2013-02-10 19:40:00,52.2,26.0,29.92,WSW,242,0.0,0.0,36,0.00,,---,0.55,VWS V14.00,2013-02-11 01:40:00,
2013-02-10 19:50:00,51.6,26.2,29.92,WSW,240,0.0,0.0,37,0.00,,---,0.55,VWS V14.00,2013-02-11 01:50:00,
2013-02-10 20:00:00,51.1,25.7,29.92,WSW,241,0.0,0.0,37,0.00,,---,0.55,VWS V14.00,2013-02-11 02:00:00,
2013-02-10 20:10:00,50.7,26.0,29.92,WSW,241,0.0,0.0,38,0.00,,---,0.55,VWS V14.00,2013-02-11 02:10:00,
2013-02-10 20:20:00,50.2,25.6,29.92,WSW,241,0.0,0.0,38,0.00,,---,0.55,VWS V14.00,2013-02-11 02:20:00,
2013-02-10 20:30:00,49.8,25.9,29.92,WSW,240,0.0,0.0,39,0.00,,---,0.55,VWS V14.00,2013-02-11 02:30:00,
2013-02-10 20:40:00,49.3,26.0,29.95,WSW,243,0.0,0.0,40,0.00,,---,0.55,VWS V14.00,2013-02-11 02:40:00,
2013-02-10 20:50:00,48.7,26.1,29.95,WSW,241,0.0,0.0,41,0.00,,---,0.55,VWS V14.00,2013-02-11 02:50:00,
2013-02-10 21:00:00,48.2,26.2,29.95,WSW,240,0.0,0.0,42,0.00,,---,0.55,VWS V14.00,2013-02-11 03:00:00,
2013-02-10 21:10:00,47.8,26.4,29.95,WSW,238,0.0,0.0,43,0.00,,---,0.55,VWS V14.00,2013-02-11 03:10:00,
2013-02-10 21:20:00,47.7,26.8,29.95,WSW,239,0.0,0.0,44,0.00,,---,0.55,VWS V14.00,2013-02-11 03:20:00,
2013-02-10 21:30:00,47.3,26.5,29.95,WSW,241,0.0,0.0,44,0.00,,---,0.55,VWS V14.00,2013-02-11 03:30:00,
2013-02-10 21:40:00,47.1,27.4,29.95,WSW,239,0.0,0.0,46,0.00,,---,0.55,VWS V14.00,2013-02-11 03:40:00,
2013-02-10 21:50:00,46.8,27.6,29.95,WSW,240,0.0,0.0,47,0.00,,---,0.55,VWS V14.00,2013-02-11 03:50:00,
2013-02-10 22:00:00,46.2,27.1,29.95,WSW,238,0.0,0.0,47,0.00,,---,0.55,VWS V14.00,2013-02-11 04:00:00,
2013-02-10 22:10:00,46.0,27.5,29.98,WSW,238,0.0,0.0,48,0.00,,---,0.55,VWS V14.00,2013-02-11 04:10:00,
2013-02-10 22:20:00,45.7,27.1,29.98,WSW,242,0.0,0.0,48,0.00,,---,0.55,VWS V14.00,2013-02-11 04:20:00,
2013-02-10 22:30:00,45.5,27.5,29.98,WSW,239,0.0,0.0,49,0.00,,---,0.55,VWS V14.00,2013-02-11 04:30:00,
2013-02-10 22:40:00,45.7,27.6,29.98,WSW,242,0.0,0.0,49,0.00,,---,0.55,VWS V14.00,2013-02-11 04:40:00,
2013-02-10 22:50:00,46.0,28.5,29.98,WSW,238,0.0,0.0,50,0.00,,---,0.55,VWS V14.00,2013-02-11 04:50:00,
2013-02-10 23:00:00,46.2,29.1,29.98,WSW,240,0.0,0.0,51,0.00,,---,0.55,VWS V14.00,2013-02-11 05:00:00,
2013-02-10 23:10:00,46.0,28.9,29.98,WSW,239,0.0,0.0,51,0.00,,---,0.55,VWS V14.00,2013-02-11 05:10:00,
2013-02-10 23:20:00,46.2,29.6,29.98,WSW,239,0.0,0.0,52,0.00,,---,0.55,VWS V14.00,2013-02-11 05:20:00,
2013-02-10 23:30:00,46.6,29.9,29.98,WSW,241,0.0,0.0,52,0.00,,---,0.55,VWS V14.00,2013-02-11 05:30:00,
2013-02-10 23:40:00,46.6,30.4,30.01,WSW,238,0.0,0.0,53,0.00,,---,0.55,VWS V14.00,2013-02-11 05:40:00,
2013-02-10 23:50:00,46.8,30.5,29.98,WSW,241,0.0,0.0,53,0.00,,---,0.55,VWS V14.00,2013-02-11 05:50:00,